Time;durP1;ratioP1;P1;durP2;ratioP2;P2;SDS_P1;SDS_P2;PMS_P1;PMS_P2;Temp;Humidity;BMP_temperature;BMP_pressure;BME280_temperature;BME280_humidity;BME280_pressure;Samples;Min_cycle;Max_cycle;Signal;HPM_P1;HPM_P2
2023/04/23 00:00:51;;;;;;;17.57;12.30;;;11.40;99.90;;;;;;6203672;23;20393;-75
2023/04/23 00:03:18;;;;;;;12.90;11.60;;;11.30;99.90;;;;;;6231180;23;20458;-74
2023/04/23 00:05:44;;;;;;;14.67;12.50;;;11.30;99.90;;;;;;6230383;23;20362;-72
2023/04/23 00:08:10;;;;;;;16.57;13.67;;;11.30;99.90;;;;;;6178287;23;20481;-71
2023/04/23 00:10:36;;;;;;;15.90;12.83;;;11.30;99.90;;;;;;6177885;23;20393;-75
2023/04/23 00:13:03;;;;;;;15.73;13.20;;;11.30;99.90;;;;;;6229798;23;20435;-72
2023/04/23 00:15:29;;;;;;;16.00;13.87;;;11.30;99.90;;;;;;6203660;23;20384;-73
2023/04/23 00:17:55;;;;;;;14.07;12.37;;;11.30;99.90;;;;;;6202518;23;20365;-72
2023/04/23 00:20:21;;;;;;;12.03;9.97;;;11.30;99.90;;;;;;6228835;23;20431;-73
2023/04/23 00:22:47;;;;;;;14.67;11.97;;;11.30;99.90;;;;;;6202881;23;20201;-71
2023/04/23 00:25:13;;;;;;;13.90;11.97;;;11.30;99.90;;;;;;6199250;23;20381;-73
2023/04/23 00:27:38;;;;;;;10.80;9.33;;;11.30;99.90;;;;;;6224654;23;20158;-72
2023/04/23 00:30:05;;;;;;;13.30;10.80;;;11.20;99.90;;;;;;6175106;23;20761;-73
2023/04/23 00:32:31;;;;;;;12.63;10.30;;;11.30;99.90;;;;;;6199907;23;20185;-71
2023/04/23 00:34:57;;;;;;;11.20;8.57;;;11.30;99.90;;;;;;6199970;23;20378;-73
2023/04/23 00:37:22;;;;;;;13.03;11.50;;;11.20;99.90;;;;;;6201701;23;20135;-75
2023/04/23 00:39:48;;;;;;;13.07;11.67;;;11.30;99.90;;;;;;6200019;23;20314;-72
2023/04/23 00:42:16;;;;;;;14.87;12.27;;;11.20;99.90;;;;;;6198331;23;20349;-71
2023/04/23 00:44:42;;;;;;;14.43;12.63;;;11.20;99.90;;;;;;6199484;23;20380;-73
2023/04/23 00:47:09;;;;;;;13.60;12.13;;;11.20;99.90;;;;;;6227722;23;20357;-71
2023/04/23 00:49:35;;;;;;;14.00;10.70;;;11.10;99.90;;;;;;6230355;23;20479;-71
2023/04/23 00:52:02;;;;;;;13.67;10.97;;;11.10;99.90;;;;;;6226608;23;20453;-72
2023/04/23 00:54:28;;;;;;;10.80;9.70;;;11.10;99.90;;;;;;6201542;23;20384;-72
2023/04/23 00:56:56;;;;;;;10.33;9.00;;;11.10;99.90;;;;;;6184268;23;20369;-71
2023/04/23 00:59:27;;;;;;;14.73;10.50;;;11.00;99.90;;;;;;6181996;23;20172;-72
2023/04/23 01:01:54;;;;;;;11.23;9.17;;;11.00;99.90;;;;;;6235214;23;20392;-71
2023/04/23 01:04:21;;;;;;;9.40;7.93;;;11.00;99.90;;;;;;6207825;23;20373;-73
2023/04/23 01:06:47;;;;;;;7.70;6.87;;;11.00;99.90;;;;;;6234281;23;20439;-72
2023/04/23 01:09:14;;;;;;;9.20;7.83;;;11.00;99.90;;;;;;6179251;23;20450;-72
2023/04/23 01:11:42;;;;;;;8.60;7.70;;;11.10;99.90;;;;;;6203090;23;20420;-71
2023/04/23 01:14:09;;;;;;;10.80;8.70;;;11.00;99.90;;;;;;6235897;23;20377;-71
2023/04/23 01:16:37;;;;;;;9.17;7.93;;;11.10;99.90;;;;;;6179276;23;20365;-73
2023/04/23 01:19:04;;;;;;;10.03;8.80;;;11.10;99.90;;;;;;6199643;23;20389;-72
2023/04/23 01:21:31;;;;;;;11.60;10.40;;;11.00;99.90;;;;;;6201907;23;20385;-72
2023/04/23 01:23:57;;;;;;;10.60;9.50;;;11.00;99.90;;;;;;6202823;23;20460;-73
2023/04/23 01:26:23;;;;;;;14.20;10.63;;;11.00;99.90;;;;;;6202979;23;20380;-72
2023/04/23 01:28:50;;;;;;;13.27;10.50;;;11.00;99.90;;;;;;6235435;23;20710;-70
2023/04/23 01:31:16;;;;;;;12.53;10.53;;;11.00;99.90;;;;;;6203014;23;20392;-73
2023/04/23 01:33:43;;;;;;;12.70;11.27;;;11.00;99.90;;;;;;6201402;23;20397;-71
2023/04/23 01:36:09;;;;;;;15.77;13.43;;;10.90;99.90;;;;;;6205119;23;20401;-72
2023/04/23 01:38:36;;;;;;;11.13;9.93;;;10.90;99.90;;;;;;6176628;23;20369;-72
2023/04/23 01:41:02;;;;;;;14.00;11.17;;;10.90;99.90;;;;;;6198983;23;20384;-71
2023/04/23 01:43:29;;;;;;;13.27;10.10;;;10.90;99.90;;;;;;6228206;23;20373;-70
2023/04/23 01:45:54;;;;;;;12.13;9.60;;;10.80;99.90;;;;;;6225957;23;20245;-72
2023/04/23 01:48:21;;;;;;;11.40;9.67;;;10.80;99.90;;;;;;6225711;23;20361;-74
2023/04/23 01:50:48;;;;;;;12.27;9.80;;;10.80;99.90;;;;;;6174146;23;20177;-71
2023/04/23 01:53:14;;;;;;;12.80;11.43;;;10.80;99.90;;;;;;6224669;23;20428;-73
2023/04/23 01:55:41;;;;;;;16.13;12.60;;;10.70;99.90;;;;;;6225327;23;20366;-72
2023/04/23 01:58:07;;;;;;;16.40;14.40;;;10.80;99.90;;;;;;6224497;23;20184;-72
2023/04/23 02:00:32;;;;;;;15.80;12.80;;;10.80;99.90;;;;;;6224658;23;20389;-71
2023/04/23 02:02:58;;;;;;;16.20;12.33;;;10.70;99.90;;;;;;6225748;23;20138;-72
2023/04/23 02:05:27;;;;;;;18.50;14.67;;;10.70;99.90;;;;;;6226845;23;20134;-72
2023/04/23 02:07:54;;;;;;;18.67;15.20;;;10.70;99.90;;;;;;6198285;23;20139;-71
2023/04/23 02:10:20;;;;;;;20.63;15.37;;;10.70;99.90;;;;;;6197335;23;20404;-70
2023/04/23 02:12:46;;;;;;;17.30;14.67;;;10.70;99.90;;;;;;6197893;23;20868;-70
2023/04/23 02:15:12;;;;;;;20.80;17.90;;;10.70;99.90;;;;;;6198318;23;20515;-70
2023/04/23 02:17:41;;;;;;;21.27;17.53;;;10.70;99.90;;;;;;6224484;23;20365;-71
2023/04/23 02:20:10;;;;;;;20.07;17.27;;;10.60;99.90;;;;;;6225857;23;20388;-71
2023/04/23 02:22:38;;;;;;;22.37;18.50;;;10.60;99.90;;;;;;6199164;23;20384;-72
2023/04/23 02:25:06;;;;;;;23.37;19.37;;;10.60;99.90;;;;;;6224694;23;20437;-71
2023/04/23 02:27:32;;;;;;;26.40;19.57;;;10.60;99.90;;;;;;6223474;23;20392;-72
2023/04/23 02:29:58;;;;;;;26.13;20.20;;;10.50;99.90;;;;;;6224605;23;20397;-71
2023/04/23 02:32:23;;;;;;;30.43;23.63;;;10.50;99.90;;;;;;6202156;23;20436;-71
2023/04/23 02:34:49;;;;;;;27.53;21.67;;;10.40;99.90;;;;;;6202442;23;20373;-72
2023/04/23 02:37:15;;;;;;;27.67;22.63;;;10.40;99.90;;;;;;6178105;23;20148;-70
2023/04/23 02:39:41;;;;;;;24.33;20.20;;;10.40;99.90;;;;;;6227781;23;20693;-73
2023/04/23 02:42:07;;;;;;;26.73;22.03;;;10.30;99.90;;;;;;6223503;23;20150;-70
2023/04/23 02:44:33;;;;;;;25.50;20.80;;;10.20;99.90;;;;;;6223963;23;20393;-70
2023/04/23 02:46:59;;;;;;;27.63;20.70;;;10.20;99.90;;;;;;6225607;23;20141;-70
2023/04/23 02:49:25;;;;;;;26.80;20.60;;;10.10;99.90;;;;;;6224845;23;20250;-69
2023/04/23 02:51:51;;;;;;;28.00;22.17;;;10.10;99.90;;;;;;6198606;23;20373;-71
2023/04/23 02:54:17;;;;;;;27.30;20.13;;;10.00;99.90;;;;;;6198495;23;20134;-71
2023/04/23 02:56:42;;;;;;;24.07;19.30;;;10.00;99.90;;;;;;6196367;23;20149;-70
2023/04/23 02:59:09;;;;;;;26.90;20.23;;;9.90;99.90;;;;;;6197533;23;20220;-70
2023/04/23 03:01:34;;;;;;;30.20;23.13;;;9.90;99.90;;;;;;6196914;23;20372;-70
2023/04/23 03:04:02;;;;;;;31.40;24.00;;;9.90;99.90;;;;;;6196615;23;20168;-70
2023/04/23 03:06:28;;;;;;;29.37;22.30;;;9.80;99.90;;;;;;6196747;23;20376;-70
2023/04/23 03:08:54;;;;;;;32.70;23.53;;;9.80;99.90;;;;;;6196047;23;20435;-70
2023/04/23 03:11:21;;;;;;;29.20;20.60;;;9.80;99.90;;;;;;6223322;23;20432;-69
2023/04/23 03:13:47;;;;;;;29.40;21.67;;;9.80;99.90;;;;;;6201446;23;20424;-73
2023/04/23 03:16:13;;;;;;;28.90;22.40;;;9.70;99.90;;;;;;6229369;23;20448;-70
2023/04/23 03:18:39;;;;;;;29.30;23.40;;;9.80;99.90;;;;;;6223179;23;20500;-70
2023/04/23 03:21:04;;;;;;;36.10;26.83;;;9.70;99.90;;;;;;6196349;23;20362;-71
2023/04/23 03:23:30;;;;;;;30.10;24.50;;;9.70;99.90;;;;;;6196357;23;20381;-72
2023/04/23 03:25:56;;;;;;;33.83;25.87;;;9.70;99.90;;;;;;6226107;23;20142;-70
2023/04/23 03:28:21;;;;;;;29.77;21.90;;;9.70;99.90;;;;;;6221881;23;20139;-71
2023/04/23 03:30:47;;;;;;;30.53;22.90;;;9.70;99.90;;;;;;6223534;23;20435;-71
2023/04/23 03:33:13;;;;;;;25.17;21.03;;;9.70;99.90;;;;;;6224262;23;20236;-70
2023/04/23 03:35:40;;;;;;;35.40;25.17;;;9.70;99.90;;;;;;6175799;23;20408;-71
2023/04/23 03:38:10;;;;;;;32.00;24.70;;;9.70;99.90;;;;;;6174348;23;20782;-70
2023/04/23 03:40:36;;;;;;;34.20;26.23;;;9.70;99.90;;;;;;6222180;23;20385;-71
2023/04/23 03:43:03;;;;;;;32.27;24.30;;;9.70;99.90;;;;;;6194813;23;20166;-71
2023/04/23 03:45:52;;;;;;;31.80;23.60;;;9.70;99.90;;;;;;6217442;23;20373;-69
2023/04/23 03:48:17;;;;;;;34.23;26.30;;;9.70;99.90;;;;;;6190762;23;20860;-73
2023/04/23 03:50:43;;;;;;;32.77;24.80;;;9.80;99.90;;;;;;6190202;23;20241;-71
2023/04/23 03:53:26;;;;;;;32.70;23.83;;;9.90;99.90;;;;;;6191169;23;20512;-69
2023/04/23 03:56:10;;;;;;;28.90;22.20;;;9.90;99.90;;;;;;6194580;23;20579;-71
2023/04/23 03:58:45;;;;;;;38.07;27.23;;;9.90;99.90;;;;;;6190329;23;20377;-74
2023/04/23 04:01:12;;;;;;;35.57;29.27;;;10.00;99.90;;;;;;6219506;23;20365;-72
2023/04/23 04:03:37;;;;;;;34.17;23.93;;;10.10;99.90;;;;;;6223034;23;20217;-71
2023/04/23 04:06:03;;;;;;;38.07;28.87;;;10.20;99.90;;;;;;6223843;23;20349;-74
2023/04/23 04:08:29;;;;;;;33.80;25.70;;;10.20;99.90;;;;;;6170343;23;20157;-69
2023/04/23 04:10:57;;;;;;;34.70;24.57;;;10.30;99.90;;;;;;6195215;23;20384;-71
2023/04/23 04:13:22;;;;;;;31.57;23.37;;;10.30;99.90;;;;;;6195861;23;20885;-71
2023/04/23 04:15:48;;;;;;;33.50;24.77;;;10.40;99.90;;;;;;6226791;23;20158;-71
2023/04/23 04:18:13;;;;;;;36.17;28.13;;;10.40;99.90;;;;;;6223205;23;20534;-71
2023/04/23 04:20:42;;;;;;;32.60;23.67;;;10.40;99.90;;;;;;6221027;23;20231;-71
2023/04/23 04:23:07;;;;;;;35.90;26.73;;;10.40;99.90;;;;;;6195514;23;20221;-72
2023/04/23 04:25:34;;;;;;;34.20;24.57;;;10.40;99.90;;;;;;6197103;23;20416;-71
2023/04/23 04:27:59;;;;;;;28.70;22.03;;;10.40;99.90;;;;;;6195505;23;20215;-72
2023/04/23 04:30:25;;;;;;;26.53;20.20;;;10.40;99.90;;;;;;6195776;23;20401;-73
2023/04/23 04:32:51;;;;;;;24.10;18.20;;;10.40;99.90;;;;;;6222738;23;20162;-71
2023/04/23 04:35:17;;;;;;;23.20;18.10;;;10.40;99.90;;;;;;6224882;23;20584;-71
2023/04/23 04:37:43;;;;;;;25.70;19.00;;;10.40;99.90;;;;;;6199169;23;20195;-70
2023/04/23 04:40:10;;;;;;;24.60;19.10;;;10.40;99.90;;;;;;6198831;23;20459;-72
2023/04/23 04:42:38;;;;;;;23.67;18.70;;;10.40;99.90;;;;;;6197897;23;20389;-72
2023/04/23 04:45:04;;;;;;;30.40;23.40;;;10.50;99.90;;;;;;6226149;23;20685;-70
2023/04/23 04:47:30;;;;;;;26.13;21.53;;;10.50;99.90;;;;;;6224663;23;20361;-71
2023/04/23 04:49:56;;;;;;;26.57;21.67;;;10.60;99.90;;;;;;6223508;23;20396;-71
2023/04/23 04:52:23;;;;;;;30.43;22.23;;;10.60;99.90;;;;;;6229379;23;20400;-71
2023/04/23 04:54:49;;;;;;;26.37;18.77;;;10.70;99.90;;;;;;6230447;23;20376;-72
2023/04/23 04:57:14;;;;;;;23.20;19.00;;;10.70;99.90;;;;;;6230481;23;20361;-71
2023/04/23 04:59:40;;;;;;;22.00;18.00;;;10.80;99.90;;;;;;6231800;23;20212;-71
2023/04/23 05:02:06;;;;;;;18.70;13.80;;;10.80;99.90;;;;;;6186092;23;20172;-73
2023/04/23 05:04:31;;;;;;;16.93;13.40;;;10.90;99.90;;;;;;6180048;23;20146;-70
2023/04/23 05:06:57;;;;;;;17.57;13.07;;;10.90;99.90;;;;;;6228610;23;20142;-71
2023/04/23 05:09:22;;;;;;;16.77;12.60;;;11.00;99.90;;;;;;6229459;23;20585;-70
2023/04/23 05:11:48;;;;;;;23.30;19.27;;;11.00;99.90;;;;;;6178789;23;20527;-71
2023/04/23 05:14:14;;;;;;;19.13;15.33;;;11.10;99.90;;;;;;6230318;23;20144;-70
2023/04/23 05:16:39;;;;;;;16.53;13.50;;;11.10;99.90;;;;;;6174989;23;20157;-72
2023/04/23 05:19:05;;;;;;;19.47;14.00;;;11.20;99.90;;;;;;6198372;23;20249;-72
2023/04/23 05:21:30;;;;;;;17.43;13.37;;;11.20;99.90;;;;;;6224387;23;20135;-69
2023/04/23 05:23:56;;;;;;;16.90;13.70;;;11.20;99.90;;;;;;6223964;23;20138;-69
2023/04/23 05:26:22;;;;;;;13.97;11.90;;;11.30;99.90;;;;;;6223169;23;20146;-71
2023/04/23 05:28:47;;;;;;;13.77;11.73;;;11.30;99.90;;;;;;6223534;23;20178;-71
2023/04/23 05:31:13;;;;;;;13.17;11.63;;;11.40;99.90;;;;;;6222929;23;20153;-71
2023/04/23 05:33:39;;;;;;;10.23;9.00;;;11.50;99.90;;;;;;6198706;23;20243;-70
2023/04/23 05:36:04;;;;;;;12.93;9.73;;;11.50;99.90;;;;;;6207748;23;20146;-71
2023/04/23 05:38:30;;;;;;;14.53;10.27;;;11.60;99.90;;;;;;6234435;23;20165;-69
2023/04/23 05:40:56;;;;;;;14.10;11.90;;;11.70;99.90;;;;;;6227143;23;20392;-72
2023/04/23 05:43:22;;;;;;;13.60;11.17;;;11.70;99.90;;;;;;6224684;23;20150;-71
2023/04/23 05:45:47;;;;;;;11.00;8.90;;;11.80;99.90;;;;;;6223858;23;20369;-70
2023/04/23 05:48:13;;;;;;;14.07;12.50;;;11.90;99.90;;;;;;6224092;23;20141;-70
2023/04/23 05:50:38;;;;;;;10.83;9.73;;;12.00;99.90;;;;;;6222758;23;20166;-69
2023/04/23 05:53:04;;;;;;;13.60;12.13;;;12.00;99.90;;;;;;6223528;23;20212;-71
2023/04/23 05:55:30;;;;;;;10.00;9.00;;;12.10;99.90;;;;;;6224687;23;20361;-71
2023/04/23 05:57:55;;;;;;;9.70;8.60;;;12.20;99.90;;;;;;6223802;23;20465;-71
2023/04/23 06:00:21;;;;;;;13.27;11.77;;;12.20;99.90;;;;;;6223953;23;20162;-72
2023/04/23 06:02:46;;;;;;;12.27;10.87;;;12.30;99.90;;;;;;6197155;23;20146;-71
2023/04/23 06:05:12;;;;;;;8.63;7.83;;;12.40;99.90;;;;;;6224234;23;20139;-70
2023/04/23 06:07:38;;;;;;;10.37;8.53;;;12.40;99.90;;;;;;6223066;23;20370;-71
2023/04/23 06:10:04;;;;;;;9.93;8.20;;;12.50;99.90;;;;;;6223912;23;20243;-70
2023/04/23 06:12:31;;;;;;;8.53;7.60;;;12.50;99.90;;;;;;6223974;23;20197;-70
2023/04/23 06:14:56;;;;;;;9.00;7.80;;;12.70;99.90;;;;;;6197333;23;20365;-70
2023/04/23 06:17:22;;;;;;;10.57;8.40;;;12.70;99.90;;;;;;6225415;23;20643;-71
2023/04/23 06:19:48;;;;;;;10.77;9.67;;;12.80;99.90;;;;;;6203270;23;20162;-72
2023/04/23 06:22:14;;;;;;;8.73;7.83;;;12.90;99.90;;;;;;6232987;23;20138;-73
2023/04/23 06:24:40;;;;;;;9.40;8.50;;;13.00;99.90;;;;;;6210564;23;20190;-72
2023/04/23 06:27:05;;;;;;;8.60;7.80;;;13.10;99.90;;;;;;6235702;23;20364;-74
2023/04/23 06:29:35;;;;;;;10.33;8.70;;;13.20;99.90;;;;;;6211338;23;20157;-71
2023/04/23 06:32:03;;;;;;;8.97;7.20;;;13.30;99.90;;;;;;6210083;23;20380;-73
2023/04/23 06:34:29;;;;;;;7.43;6.67;;;13.40;99.90;;;;;;6235415;23;20341;-73
2023/04/23 06:36:55;;;;;;;8.47;7.67;;;13.50;99.90;;;;;;6211600;23;20365;-71
2023/04/23 06:39:20;;;;;;;7.13;5.83;;;13.60;99.90;;;;;;6234962;23;20233;-71
2023/04/23 06:41:46;;;;;;;8.83;8.03;;;13.70;99.90;;;;;;6181545;23;20231;-69
2023/04/23 06:44:21;;;;;;;7.90;6.90;;;13.80;99.90;;;;;;6204469;23;20201;-75
2023/04/23 06:46:50;;;;;;;9.80;7.43;;;13.90;99.90;;;;;;6232938;23;20354;-71
2023/04/23 06:49:17;;;;;;;5.80;5.20;;;14.00;99.90;;;;;;6234067;23;20474;-75
2023/04/23 06:51:43;;;;;;;5.20;4.70;;;14.20;99.90;;;;;;6231244;23;20523;-72
2023/04/23 06:54:08;;;;;;;6.77;6.10;;;14.30;99.90;;;;;;6200875;23;20422;-71
2023/04/23 06:56:34;;;;;;;5.17;4.57;;;14.40;99.90;;;;;;6228368;23;20622;-70
2023/04/23 06:59:00;;;;;;;7.37;6.67;;;14.40;99.90;;;;;;6226100;23;20168;-71
2023/04/23 07:01:26;;;;;;;9.23;7.50;;;14.50;99.90;;;;;;6199724;23;20380;-70
2023/04/23 07:03:53;;;;;;;5.87;5.27;;;14.60;99.90;;;;;;6226542;23;20369;-72
2023/04/23 07:06:19;;;;;;;4.70;4.30;;;14.70;99.90;;;;;;6199914;23;20190;-71
2023/04/23 07:08:44;;;;;;;6.33;5.73;;;14.90;99.90;;;;;;6177258;23;20385;-77
2023/04/23 07:11:11;;;;;;;5.07;4.07;;;15.00;99.90;;;;;;6198024;23;20197;-74
2023/04/23 07:13:37;;;;;;;4.10;3.70;;;15.30;99.90;;;;;;6197602;23;20186;-71
2023/04/23 07:16:02;;;;;;;5.13;4.20;;;15.50;99.90;;;;;;6197733;23;20368;-72
2023/04/23 07:18:28;;;;;;;4.80;3.83;;;15.60;99.90;;;;;;6222964;23;20631;-73
2023/04/23 07:20:54;;;;;;;3.93;3.60;;;15.70;99.90;;;;;;6223251;23;20137;-73
2023/04/23 07:23:20;;;;;;;6.83;5.70;;;15.80;99.90;;;;;;6172477;23;20161;-69
2023/04/23 07:25:45;;;;;;;5.30;4.80;;;15.80;99.90;;;;;;6172115;23;20138;-72
2023/04/23 07:28:11;;;;;;;5.70;5.20;;;15.90;99.90;;;;;;6197264;23;20627;-72
2023/04/23 07:30:36;;;;;;;4.40;4.00;;;16.00;99.90;;;;;;6224009;23;20385;-73
2023/04/23 07:33:02;;;;;;;5.13;4.03;;;16.20;99.90;;;;;;6197369;23;20193;-71
2023/04/23 07:35:28;;;;;;;4.63;4.10;;;16.30;99.90;;;;;;6161979;23;20418;-72
2023/04/23 07:37:56;;;;;;;8.97;4.30;;;16.40;99.90;;;;;;6163056;23;20147;-73
2023/04/23 07:40:22;;;;;;;4.37;3.97;;;16.60;99.30;;;;;;6163425;23;20202;-70
2023/04/23 07:42:49;;;;;;;5.17;4.67;;;16.60;97.20;;;;;;6139745;23;20383;-72
2023/04/23 07:45:15;;;;;;;4.93;3.97;;;16.50;96.70;;;;;;6165852;23;20377;-71
2023/04/23 07:47:40;;;;;;;4.63;4.03;;;16.40;97.30;;;;;;6138238;23;20807;-70
2023/04/23 07:50:07;;;;;;;5.80;4.00;;;16.40;98.40;;;;;;6138738;23;20194;-73
2023/04/23 07:52:32;;;;;;;3.30;2.87;;;16.30;98.20;;;;;;6138160;23;20164;-71
2023/04/23 07:54:58;;;;;;;4.30;3.90;;;16.20;98.30;;;;;;6138956;23;20442;-72
2023/04/23 07:57:23;;;;;;;3.60;3.07;;;16.10;97.90;;;;;;6140780;23;20500;-73
2023/04/23 07:59:49;;;;;;;4.20;2.87;;;16.00;98.50;;;;;;6142969;23;20178;-73
2023/04/23 08:02:17;;;;;;;3.50;2.60;;;15.90;99.20;;;;;;6163747;23;20151;-71
2023/04/23 08:04:42;;;;;;;4.00;3.60;;;15.90;99.70;;;;;;6161897;23;20143;-73
2023/04/23 08:07:08;;;;;;;4.70;3.37;;;15.90;98.90;;;;;;6138960;23;20402;-72
2023/04/23 08:09:34;;;;;;;4.17;3.60;;;16.10;98.50;;;;;;6139179;23;20177;-72
2023/04/23 08:12:01;;;;;;;4.77;3.17;;;16.20;98.00;;;;;;6123269;23;20205;-73
2023/04/23 08:14:26;;;;;;;4.50;3.10;;;16.40;96.50;;;;;;6173196;23;20373;-72
2023/04/23 08:16:52;;;;;;;5.50;3.10;;;16.60;93.90;;;;;;6198003;23;20357;-71
2023/04/23 08:19:17;;;;;;;6.77;4.90;;;16.70;93.40;;;;;;6196937;23;20174;-73
2023/04/23 08:21:43;;;;;;;3.50;2.67;;;16.80;92.60;;;;;;6225964;23;20138;-70
2023/04/23 08:24:09;;;;;;;4.23;3.10;;;16.90;91.80;;;;;;6173346;23;20145;-71
2023/04/23 08:26:35;;;;;;;4.10;3.27;;;17.00;91.70;;;;;;6199532;23;20196;-71
2023/04/23 08:29:01;;;;;;;2.57;2.37;;;17.00;91.60;;;;;;6174905;23;20177;-71
2023/04/23 08:31:27;;;;;;;2.87;2.67;;;17.10;92.00;;;;;;6224731;23;20765;-70
2023/04/23 08:33:53;;;;;;;3.70;2.83;;;17.20;90.80;;;;;;6202439;23;20411;-72
2023/04/23 08:36:19;;;;;;;5.17;4.27;;;17.30;90.30;;;;;;6202680;23;20515;-70
2023/04/23 08:38:45;;;;;;;3.83;2.83;;;17.30;85.30;;;;;;6225210;23;20377;-71
2023/04/23 08:41:13;;;;;;;6.97;3.43;;;17.40;84.60;;;;;;6223959;23;20202;-73
2023/04/23 08:43:51;;;;;;;3.50;3.20;;;17.40;79.90;;;;;;6198856;23;20147;-72
2023/04/23 08:46:18;;;;;;;5.40;2.83;;;17.40;83.70;;;;;;6201049;23;20435;-72
2023/04/23 08:48:46;;;;;;;3.73;3.00;;;17.50;84.80;;;;;;6199774;23;20371;-71
2023/04/23 08:51:16;;;;;;;2.97;2.13;;;17.60;82.60;;;;;;6196825;23;20377;-71
2023/04/23 08:53:44;;;;;;;3.40;2.60;;;17.80;82.30;;;;;;6196656;23;20510;-72
2023/04/23 08:56:12;;;;;;;3.63;2.70;;;17.90;80.60;;;;;;6173216;23;20372;-71
2023/04/23 08:58:40;;;;;;;3.10;2.17;;;17.90;77.80;;;;;;6200055;23;20375;-73
2023/04/23 09:01:06;;;;;;;4.00;2.67;;;17.90;77.50;;;;;;6200282;23;20362;-73
2023/04/23 09:03:32;;;;;;;3.10;2.47;;;17.80;76.90;;;;;;6200062;23;20373;-71
2023/04/23 09:05:58;;;;;;;3.60;2.90;;;18.10;76.60;;;;;;6225562;23;20792;-74
2023/04/23 09:08:24;;;;;;;7.80;2.83;;;18.30;73.50;;;;;;6227170;23;20364;-71
2023/04/23 09:10:51;;;;;;;3.40;2.40;;;18.40;70.90;;;;;;6225528;23;20396;-75
2023/04/23 09:13:17;;;;;;;5.53;2.67;;;18.30;72.00;;;;;;6198317;23;20178;-71
2023/04/23 09:15:43;;;;;;;3.50;2.63;;;18.40;70.40;;;;;;6199744;23;20460;-75
2023/04/23 09:18:09;;;;;;;5.47;2.83;;;18.50;69.30;;;;;;6199206;23;20220;-71
2023/04/23 09:20:35;;;;;;;3.60;2.03;;;18.60;67.90;;;;;;6200024;23;20168;-75
2023/04/23 09:23:13;;;;;;;3.20;2.10;;;18.80;66.70;;;;;;6203218;23;20653;-75
2023/04/23 09:25:39;;;;;;;1.90;1.70;;;19.00;64.80;;;;;;6176376;23;20172;-74
2023/04/23 09:28:07;;;;;;;5.93;3.23;;;19.10;62.50;;;;;;6200392;23;20365;-73
2023/04/23 09:30:44;;;;;;;3.70;2.00;;;19.00;60.80;;;;;;6203246;23;20865;-72
2023/04/23 09:33:11;;;;;;;2.60;1.80;;;19.00;60.80;;;;;;6177509;23;20408;-72
2023/04/23 09:35:37;;;;;;;3.03;1.93;;;19.10;59.80;;;;;;6200910;23;20368;-72
2023/04/23 09:38:06;;;;;;;2.83;1.80;;;19.20;59.40;;;;;;6175505;23;20415;-73
2023/04/23 09:40:32;;;;;;;4.73;2.30;;;19.30;59.20;;;;;;6199542;23;20158;-71
2023/04/23 09:42:58;;;;;;;4.77;2.90;;;19.50;58.70;;;;;;6202441;23;20488;-73
2023/04/23 09:45:24;;;;;;;5.97;3.00;;;19.60;58.10;;;;;;6203013;23;20431;-73
2023/04/23 09:47:55;;;;;;;5.27;2.60;;;19.70;57.20;;;;;;6228883;23;20165;-75
2023/04/23 09:50:38;;;;;;;4.10;2.07;;;19.70;57.20;;;;;;6227645;23;20389;-73
2023/04/23 09:53:05;;;;;;;3.23;2.00;;;19.70;55.90;;;;;;6202783;23;20428;-72
2023/04/23 09:55:37;;;;;;;2.40;1.50;;;19.80;55.20;;;;;;6229738;23;20413;-71
2023/04/23 09:58:04;;;;;;;3.10;1.67;;;19.90;54.30;;;;;;6232437;23;20431;-72
2023/04/23 10:00:35;;;;;;;3.77;1.97;;;20.00;54.80;;;;;;6207161;23;20393;-76
2023/04/23 10:03:01;;;;;;;3.90;2.30;;;20.20;54.20;;;;;;6233570;23;20365;-73
2023/04/23 10:05:28;;;;;;;4.33;2.10;;;20.60;51.40;;;;;;6205997;23;20381;-72
2023/04/23 10:07:56;;;;;;;5.07;2.47;;;20.50;51.30;;;;;;6181033;23;20396;-73
2023/04/23 10:10:22;;;;;;;6.00;2.33;;;20.50;50.80;;;;;;6180074;23;20404;-71
2023/04/23 10:12:50;;;;;;;7.13;2.17;;;20.50;50.40;;;;;;6171359;23;20745;-75
2023/04/23 10:15:16;;;;;;;3.90;2.17;;;20.40;50.60;;;;;;6147825;23;20386;-73
2023/04/23 10:17:42;;;;;;;2.80;1.50;;;20.50;51.20;;;;;;6174584;23;20367;-72
2023/04/23 10:20:09;;;;;;;3.47;1.67;;;20.70;50.50;;;;;;6170653;23;20399;-72
2023/04/23 10:22:36;;;;;;;4.20;1.90;;;20.70;49.00;;;;;;6170648;23;20657;-72
2023/04/23 10:25:10;;;;;;;4.73;1.60;;;20.70;47.80;;;;;;6145497;23;20394;-73
2023/04/23 10:27:45;;;;;;;4.87;1.70;;;20.50;48.50;;;;;;6170136;23;20371;-74
2023/04/23 10:30:12;;;;;;;3.17;1.70;;;20.60;48.60;;;;;;6169236;23;20405;-72
2023/04/23 10:32:38;;;;;;;4.40;1.80;;;20.60;48.70;;;;;;6166306;23;20406;-72
2023/04/23 10:35:05;;;;;;;2.03;1.20;;;20.60;48.10;;;;;;6142769;23;20379;-71
2023/04/23 10:37:31;;;;;;;2.50;1.87;;;20.50;48.50;;;;;;6170307;23;20611;-72
2023/04/23 10:40:06;;;;;;;5.17;2.70;;;20.60;48.20;;;;;;6144421;23;20437;-72
2023/04/23 10:42:32;;;;;;;3.53;2.27;;;20.50;48.00;;;;;;6167855;23;20146;-73
2023/04/23 10:44:58;;;;;;;2.50;1.73;;;20.30;47.50;;;;;;6167735;23;20382;-73
2023/04/23 10:47:24;;;;;;;2.63;1.60;;;20.20;47.90;;;;;;6168716;23;20140;-74
2023/04/23 10:49:50;;;;;;;3.97;1.40;;;20.10;47.90;;;;;;6171317;23;20178;-74
2023/04/23 10:52:17;;;;;;;2.07;1.03;;;20.10;47.70;;;;;;6172900;23;20193;-73
2023/04/23 10:54:47;;;;;;;4.17;1.70;;;20.10;48.10;;;;;;6147757;23;20377;-73
2023/04/23 10:57:13;;;;;;;4.47;1.70;;;20.10;47.90;;;;;;6148136;23;20383;-74
2023/04/23 10:59:54;;;;;;;2.87;1.70;;;20.30;48.30;;;;;;6176398;23;20454;-73
2023/04/23 11:02:22;;;;;;;2.27;1.50;;;20.40;48.20;;;;;;6174640;23;20779;-74
2023/04/23 11:04:56;;;;;;;3.77;1.57;;;20.70;47.20;;;;;;6149251;23;20390;-72
2023/04/23 11:07:28;;;;;;;4.37;1.60;;;20.80;47.00;;;;;;6149424;23;20386;-71
2023/04/23 11:09:57;;;;;;;3.67;1.70;;;20.80;46.90;;;;;;6173869;23;20394;-72
2023/04/23 11:12:26;;;;;;;2.13;1.20;;;20.70;45.40;;;;;;6211731;23;20427;-73
2023/04/23 11:14:58;;;;;;;3.80;3.17;;;20.60;45.30;;;;;;6207073;23;20433;-75
2023/04/23 11:17:29;;;;;;;3.33;2.20;;;20.70;45.00;;;;;;6181190;23;20415;-75
2023/04/23 11:20:19;;;;;;;2.50;1.50;;;20.50;45.40;;;;;;6181327;23;20389;-75
2023/04/23 11:22:46;;;;;;;3.87;1.77;;;20.50;45.10;;;;;;6181207;23;20392;-71
2023/04/23 11:25:20;;;;;;;3.90;1.60;;;20.40;44.90;;;;;;6228866;23;20397;-73
2023/04/23 11:27:49;;;;;;;3.67;1.47;;;20.30;45.10;;;;;;6206529;23;20416;-74
2023/04/23 11:30:30;;;;;;;5.13;2.37;;;20.40;44.90;;;;;;6228764;23;20397;-71
2023/04/23 11:32:58;;;;;;;3.10;1.83;;;20.40;44.50;;;;;;6228729;23;20397;-71
2023/04/23 11:35:28;;;;;;;2.37;1.40;;;20.50;44.50;;;;;;6181299;23;20373;-73
2023/04/23 11:37:54;;;;;;;6.23;2.10;;;20.60;44.10;;;;;;6232429;23;20376;-72
2023/04/23 11:40:21;;;;;;;3.73;1.60;;;20.70;44.20;;;;;;6184672;23;20389;-74
2023/04/23 11:42:53;;;;;;;4.87;2.10;;;20.80;44.50;;;;;;6233430;23;20376;-74
2023/04/23 11:45:20;;;;;;;3.80;1.23;;;20.80;44.20;;;;;;6181539;23;20369;-71
2023/04/23 11:47:49;;;;;;;3.00;1.90;;;20.80;44.40;;;;;;6182142;23;20365;-73
2023/04/23 11:50:31;;;;;;;4.37;1.97;;;20.70;44.60;;;;;;6231420;23;20401;-72
2023/04/23 11:53:03;;;;;;;4.20;2.20;;;20.70;44.70;;;;;;6205374;23;20456;-71
2023/04/23 11:55:28;;;;;;;2.20;1.43;;;20.70;44.60;;;;;;6186475;23;20404;-73
2023/04/23 11:57:55;;;;;;;2.50;1.23;;;20.80;45.00;;;;;;6210176;23;20383;-71
2023/04/23 12:00:24;;;;;;;2.80;1.60;;;21.00;45.10;;;;;;6238959;23;20169;-75
2023/04/23 12:02:57;;;;;;;2.50;1.60;;;21.30;45.00;;;;;;6238494;23;20365;-74
2023/04/23 12:05:36;;;;;;;1.97;1.17;;;21.50;44.80;;;;;;6231319;23;20365;-73
2023/04/23 12:08:09;;;;;;;2.10;1.27;;;21.70;44.40;;;;;;6209080;23;20409;-74
2023/04/23 12:11:02;;;;;;;1.20;1.10;;;21.70;44.00;;;;;;6200370;23;20480;-74
2023/04/23 12:13:30;;;;;;;2.30;1.80;;;21.80;43.80;;;;;;6195109;23;20424;-72
2023/04/23 12:15:58;;;;;;;4.50;2.63;;;21.60;44.00;;;;;;6226692;23;20580;-75
2023/04/23 12:18:27;;;;;;;3.37;1.30;;;21.40;44.10;;;;;;6198576;23;20894;-73
2023/04/23 12:20:53;;;;;;;3.10;2.50;;;21.30;44.00;;;;;;6175513;23;20797;-72
2023/04/23 12:23:27;;;;;;;5.37;2.20;;;21.00;43.60;;;;;;6226083;23;20447;-73
2023/04/23 12:25:54;;;;;;;5.93;2.00;;;20.90;43.90;;;;;;6228334;23;20142;-74
2023/04/23 12:28:23;;;;;;;5.07;2.10;;;20.60;44.20;;;;;;6178445;23;20444;-74
2023/04/23 12:30:49;;;;;;;2.60;1.43;;;20.50;44.50;;;;;;6174714;23;20408;-72
2023/04/23 12:33:15;;;;;;;2.47;1.43;;;20.50;44.70;;;;;;6228145;23;20472;-72
2023/04/23 12:35:50;;;;;;;3.23;1.70;;;20.40;44.20;;;;;;6227777;23;20417;-72
2023/04/23 12:38:23;;;;;;;6.90;2.13;;;20.20;44.60;;;;;;6203055;23;20153;-74